Startpagina
METAR-TAF:

METAR-TAF

Vliegvelden :

Delta Junction / Fort Greely, Alaska, Verenigde Staten

breedte: 64-00N, lengte: 145-44W, hoogte: 389 m

Actueel weer

Dit bericht is 53 minuten geleden gemaakt, om 16:53 UTC
Weinig wind
Temperatuur -1°C
Vochtigheid 50%
Druk 1022 hPa
Zicht: 16.1 km
Weinig wolken op 12000 ft

METAR: PABI 251653Z 00000KT 10SM FEW120 M01/M10 A3018 RMK AO2 SLP241 T10111100

Tijdstip: 09:46 (17:46 UTC)

Verwachting

Dit bericht is 3 uur en het 46 minuten geleden gemaakt, om 14:00 UTC
Verwachting geldig van 25 om 14 UTC tot 26 om 20 UTC
Wind 6 kt uit variabele richting
Zicht 10 km of meer
Weinig wolken op 12000 ft
Wijzigt naar
van 26 om 14 UTC tot 26 om 15 UTC
Wind 9 kt uit het westnoordwesten
Zicht 10 km of meer
Gebroken wolken op 2000 ft
Gebroken wolken op 6500 ft

TAF: PABI 251400Z 2514/2620 VRB06KT 9999 FEW120 QNH3013INS BECMG 2614/2615 30009KT 9999 BKN020 BKN065 620205 QNH3016INS TX07/2600Z TNM08/2514Z

Waarnemingen en weersverwachtingen van meer dan 4000 vliegvelden (METAR en TAF).

De beschikbare stations zijn de gele en rode punten op de kaart.

Ga met uw muis naar het station om de naam te zien.

Klik dan om waarnemingen en weersverwachtingen te zien.

kaart wijzigen: klik op de groene knoppen met een zwart kruis om in te zoomen, op de groene knop met een streepje om uit te zoomen of op de groene pijlen voor aangrenzende kaarten.


METAR-TAF: